createdAt,value
2019-06-01T00:02:22.487Z,17.60
2019-06-01T00:04:52.904Z,17.30
2019-06-01T00:07:23.253Z,17.30
2019-06-01T00:09:53.567Z,17.30
2019-06-01T00:12:23.908Z,17.40
2019-06-01T00:14:54.186Z,17.40
2019-06-01T00:17:24.550Z,17.30
2019-06-01T00:19:55.827Z,17.10
2019-06-01T00:22:26.186Z,17.00
2019-06-01T00:24:56.492Z,17.00
2019-06-01T00:27:26.828Z,17.10
2019-06-01T00:29:57.146Z,17.10
2019-06-01T00:32:27.512Z,17.00
2019-06-01T00:34:57.785Z,16.90
2019-06-01T00:37:28.172Z,17.00
2019-06-01T00:39:58.473Z,16.90
2019-06-01T00:42:29.162Z,16.90
2019-06-01T00:44:59.453Z,16.90
2019-06-01T00:47:29.809Z,16.80
2019-06-01T00:50:00.091Z,16.70
2019-06-01T00:52:30.442Z,16.60
2019-06-01T00:55:00.743Z,16.50
2019-06-01T00:57:31.115Z,16.50
2019-06-01T01:00:01.410Z,16.60
2019-06-01T01:02:33.290Z,16.50
2019-06-01T01:05:18.043Z,16.40
2019-06-01T01:07:48.816Z,16.40
2019-06-01T01:10:19.401Z,16.50
2019-06-01T01:13:07.583Z,16.50
2019-06-01T01:15:37.999Z,16.40
2019-06-01T01:18:09.162Z,16.40
2019-06-01T01:20:39.642Z,16.30
2019-06-01T01:23:10.032Z,16.20
2019-06-01T01:25:40.345Z,16.20
2019-06-01T01:28:10.694Z,16.20
2019-06-01T01:30:42.010Z,16.10
2019-06-01T01:33:12.377Z,16.20
2019-06-01T01:35:42.678Z,16.20
2019-06-01T01:38:13.046Z,16.20
2019-06-01T01:40:43.346Z,16.20
2019-06-01T01:43:13.753Z,16.10
2019-06-01T01:45:44.052Z,16.10
2019-06-01T01:48:14.422Z,16.10
2019-06-01T01:50:44.715Z,16.10
2019-06-01T01:53:15.079Z,16.10
2019-06-01T01:55:45.398Z,16.10
2019-06-01T01:58:15.753Z,16.00
2019-06-01T02:00:47.895Z,15.90
2019-06-01T02:03:18.261Z,16.00
2019-06-01T02:05:48.556Z,16.10
2019-06-01T02:08:18.954Z,16.20
2019-06-01T02:10:49.254Z,16.20
2019-06-01T02:13:19.726Z,16.30
2019-06-01T02:15:50.028Z,16.30
2019-06-01T02:18:20.389Z,16.50
2019-06-01T02:20:50.698Z,16.60
2019-06-01T02:23:21.050Z,16.60
2019-06-01T02:25:52.773Z,16.60
2019-06-01T02:28:23.341Z,16.60
2019-06-01T02:30:53.958Z,16.60
2019-06-01T02:33:24.395Z,16.50
2019-06-01T02:35:56.186Z,16.50
2019-06-01T02:38:26.640Z,16.50
2019-06-01T02:40:57.442Z,16.50
2019-06-01T02:43:28.927Z,16.50
2019-06-01T02:46:00.543Z,16.50
2019-06-01T02:48:31.408Z,16.40
2019-06-01T02:51:02.022Z,16.30
2019-06-01T02:53:32.990Z,16.30
2019-06-01T02:56:04.302Z,16.20
2019-06-01T02:58:34.846Z,16.20
2019-06-01T03:01:10.994Z,16.20
2019-06-01T03:03:42.656Z,16.30
2019-06-01T03:06:14.930Z,16.30
2019-06-01T03:08:47.389Z,16.30
2019-06-01T03:11:19.748Z,16.20
2019-06-01T03:13:52.780Z,16.20
2019-06-01T03:16:24.683Z,16.10
2019-06-01T03:18:57.003Z,16.10
2019-06-01T03:21:30.226Z,16.10
2019-06-01T03:24:13.261Z,16.00
2019-06-01T03:26:46.612Z,16.10
2019-06-01T03:29:19.565Z,16.10
2019-06-01T03:31:49.893Z,16.00
2019-06-01T03:34:20.265Z,16.00
2019-06-01T03:36:50.650Z,16.00
2019-06-01T03:39:21.029Z,16.00
2019-06-01T03:41:52.130Z,16.10
2019-06-01T03:44:22.495Z,16.20
2019-06-01T03:46:52.804Z,16.20
2019-06-01T03:49:23.195Z,16.20
2019-06-01T03:51:53.617Z,16.20
2019-06-01T03:54:23.985Z,16.30
2019-06-01T03:56:54.290Z,16.20
2019-06-01T03:59:24.643Z,16.10
2019-06-01T04:01:55.976Z,16.10
2019-06-01T04:04:26.338Z,16.10
2019-06-01T04:06:57.631Z,16.20
2019-06-01T04:09:28.004Z,16.20
2019-06-01T04:11:58.302Z,16.40
2019-06-01T04:14:28.710Z,16.40
2019-06-01T04:16:59.021Z,16.40
2019-06-01T04:19:29.374Z,16.20
2019-06-01T04:21:59.667Z,16.10
2019-06-01T04:24:30.015Z,16.10
2019-06-01T04:27:00.324Z,16.10
2019-06-01T04:29:30.689Z,16.20
2019-06-01T04:32:02.396Z,16.00
2019-06-01T04:34:35.651Z,16.00
2019-06-01T04:37:05.180Z,16.00
2019-06-01T04:39:35.656Z,15.90
2019-06-01T04:42:05.966Z,16.00
2019-06-01T04:44:36.371Z,16.20
2019-06-01T04:47:06.779Z,16.30
2019-06-01T04:49:37.226Z,16.10
2019-06-01T04:52:08.749Z,16.10
2019-06-01T04:54:39.288Z,16.00
2019-06-01T04:57:10.932Z,15.90
2019-06-01T04:59:41.448Z,16.00
2019-06-01T05:02:13.053Z,16.10
2019-06-01T05:04:44.038Z,16.20
2019-06-01T05:07:15.510Z,16.20
2019-06-01T05:09:46.013Z,16.30
2019-06-01T05:12:16.306Z,16.40
2019-06-01T05:14:46.703Z,16.50
2019-06-01T05:17:17.002Z,16.60
2019-06-01T05:19:47.353Z,16.70
2019-06-01T05:22:17.661Z,16.80
2019-06-01T05:24:48.034Z,17.00
2019-06-01T05:27:18.322Z,17.10
2019-06-01T05:29:48.694Z,17.20
2019-06-01T05:32:18.978Z,17.30
2019-06-01T05:34:49.346Z,17.20
2019-06-01T05:37:19.659Z,17.30
2019-06-01T05:39:53.163Z,17.30
2019-06-01T05:42:23.478Z,17.40
2019-06-01T05:44:53.858Z,17.50
2019-06-01T05:47:24.165Z,17.60
2019-06-01T05:49:55.641Z,17.60
2019-06-01T05:52:25.953Z,17.70
2019-06-01T05:54:56.316Z,17.90
2019-06-01T05:57:26.641Z,18.00
2019-06-01T05:59:57.016Z,18.10
2019-06-01T06:02:28.316Z,18.20
2019-06-01T06:04:58.694Z,18.30
2019-06-01T06:07:28.980Z,18.40
2019-06-01T06:09:59.338Z,18.50
2019-06-01T06:12:29.635Z,18.60
2019-06-01T06:15:00.006Z,18.70
2019-06-01T06:17:30.309Z,18.70
2019-06-01T06:20:00.698Z,18.80
2019-06-01T06:22:32.212Z,18.90
2019-06-01T06:25:03.540Z,18.90
2019-06-01T06:27:33.826Z,19.00
2019-06-01T06:30:07.976Z,19.10
2019-06-01T06:32:39.292Z,19.10
2019-06-01T06:35:09.756Z,19.20
2019-06-01T06:37:42.326Z,19.30
2019-06-01T06:40:13.787Z,19.40
2019-06-01T06:42:44.151Z,19.50
2019-06-01T06:45:14.662Z,19.60
2019-06-01T06:47:44.926Z,19.70
2019-06-01T06:50:19.433Z,19.70
2019-06-01T06:52:49.748Z,19.80
2019-06-01T06:55:20.082Z,19.90
2019-06-01T06:57:50.697Z,20.00
2019-06-01T07:00:21.169Z,20.10
2019-06-01T07:02:52.024Z,20.20
2019-06-01T07:05:23.386Z,20.20
2019-06-01T07:07:54.025Z,20.30
2019-06-01T07:10:24.379Z,20.40
2019-06-01T07:12:54.669Z,20.50
2019-06-01T07:15:25.562Z,20.60
2019-06-01T07:17:57.053Z,20.80
2019-06-01T07:20:27.924Z,20.90
2019-06-01T07:22:58.267Z,20.90
2019-06-01T07:25:28.850Z,21.00
2019-06-01T07:27:59.250Z,21.10
2019-06-01T07:30:29.596Z,21.30
2019-06-01T07:32:59.902Z,21.30
2019-06-01T07:35:32.530Z,21.40
2019-06-01T07:38:02.971Z,21.50
2019-06-01T07:40:34.276Z,21.60
2019-06-01T07:43:04.571Z,21.70
2019-06-01T07:45:35.390Z,21.70
2019-06-01T07:48:05.752Z,21.80
2019-06-01T07:50:36.113Z,21.80
2019-06-01T07:53:06.402Z,21.90
2019-06-01T07:55:36.769Z,22.00
2019-06-01T07:58:08.057Z,22.00
2019-06-01T08:00:38.433Z,22.00
2019-06-01T08:03:08.718Z,22.10
2019-06-01T08:05:40.074Z,22.20
2019-06-01T08:08:10.376Z,22.20
2019-06-01T08:10:40.726Z,22.30
2019-06-01T08:13:11.006Z,22.30
2019-06-01T08:15:41.394Z,22.30
2019-06-01T08:18:11.774Z,22.40
2019-06-01T08:20:42.237Z,22.50
2019-06-01T08:23:12.546Z,22.50
2019-06-01T08:25:43.406Z,22.60
2019-06-01T08:28:13.698Z,22.60
2019-06-01T08:30:44.036Z,22.60
2019-06-01T08:33:14.303Z,22.70
2019-06-01T08:35:44.637Z,22.70
2019-06-01T08:38:15.869Z,22.80
2019-06-01T08:40:46.150Z,22.90
2019-06-01T08:43:18.008Z,22.90
2019-06-01T08:45:48.381Z,22.90
2019-06-01T08:48:18.726Z,23.00
2019-06-01T08:50:49.033Z,23.00
2019-06-01T08:53:19.365Z,23.00
2019-06-01T08:55:49.664Z,22.90
2019-06-01T08:58:20.024Z,23.00
2019-06-01T09:00:50.396Z,23.00
2019-06-01T09:03:20.713Z,23.00
2019-06-01T09:05:51.025Z,22.90
2019-06-01T09:08:23.774Z,23.00
2019-06-01T09:10:53.468Z,23.00
2019-06-01T09:13:25.012Z,23.00
2019-06-01T09:15:55.401Z,23.10
2019-06-01T09:18:25.780Z,23.10
2019-06-01T09:20:55.998Z,23.10
2019-06-01T09:23:27.506Z,23.10
2019-06-01T09:25:57.946Z,23.20
2019-06-01T09:28:31.988Z,23.20
2019-06-01T09:31:02.372Z,23.20
2019-06-01T09:33:32.740Z,23.30
2019-06-01T09:36:03.030Z,23.20
2019-06-01T09:38:33.773Z,23.30
2019-06-01T09:41:07.964Z,23.30
2019-06-01T09:43:38.201Z,23.30
2019-06-01T09:46:08.808Z,23.20
2019-06-01T09:48:39.145Z,23.20
2019-06-01T09:51:09.454Z,23.40
2019-06-01T09:53:39.740Z,23.50
2019-06-01T09:56:10.060Z,23.50
2019-06-01T09:58:40.474Z,23.50
2019-06-01T10:01:10.776Z,23.50
2019-06-01T10:03:41.097Z,23.50
2019-06-01T10:06:13.973Z,23.60
2019-06-01T10:08:43.240Z,23.60
2019-06-01T10:11:13.646Z,23.70
2019-06-01T10:13:43.899Z,23.60
2019-06-01T10:16:14.190Z,23.60
2019-06-01T10:18:44.558Z,23.70
2019-06-01T10:21:14.839Z,23.70
2019-06-01T10:23:49.260Z,23.70
2019-06-01T10:26:17.138Z,23.70
2019-06-01T10:28:47.406Z,23.70
2019-06-01T10:31:17.698Z,23.80
2019-06-01T10:33:51.304Z,23.80
2019-06-01T10:36:21.365Z,23.90
2019-06-01T10:38:51.916Z,24.00
2019-06-01T10:41:22.302Z,24.00
2019-06-01T10:43:52.586Z,24.00
2019-06-01T10:46:22.892Z,24.00
2019-06-01T10:48:53.272Z,24.00
2019-06-01T10:51:23.555Z,24.00
2019-06-01T10:53:53.846Z,24.10
2019-06-01T10:56:24.177Z,24.10
2019-06-01T10:59:00.356Z,24.00
2019-06-01T11:01:26.441Z,24.00
2019-06-01T11:03:56.794Z,24.10
2019-06-01T11:06:36.651Z,24.20
2019-06-01T11:08:59.007Z,24.30
2019-06-01T11:11:29.403Z,24.30
2019-06-01T11:13:59.664Z,24.20
2019-06-01T11:16:29.973Z,24.10
2019-06-01T11:19:00.326Z,24.10
2019-06-01T11:21:31.575Z,24.20
2019-06-01T11:24:01.878Z,24.20
2019-06-01T11:26:33.258Z,24.20
2019-06-01T11:29:03.736Z,24.30
2019-06-01T11:31:34.037Z,24.50
2019-06-01T11:34:04.601Z,24.60
2019-06-01T11:36:36.118Z,24.60
2019-06-01T11:39:07.521Z,24.60
2019-06-01T11:41:38.465Z,24.60
2019-06-01T11:44:08.851Z,24.70
2019-06-01T11:46:39.162Z,24.60
2019-06-01T11:49:10.030Z,24.60
2019-06-01T11:51:41.500Z,24.60
2019-06-01T11:54:11.865Z,24.50
2019-06-01T11:56:43.304Z,24.50
2019-06-01T11:59:13.728Z,24.50
2019-06-01T12:01:44.201Z,24.70
2019-06-01T12:04:14.628Z,24.70
2019-06-01T12:06:46.223Z,24.80
2019-06-01T12:09:16.726Z,24.70
2019-06-01T12:11:47.134Z,24.70
2019-06-01T12:14:17.449Z,24.70
2019-06-01T12:16:50.560Z,24.60
2019-06-01T12:19:20.904Z,24.70
2019-06-01T12:21:51.254Z,24.80
2019-06-01T12:24:25.453Z,24.90
2019-06-01T12:26:53.709Z,24.90
2019-06-01T12:29:24.003Z,24.90
2019-06-01T12:31:54.295Z,25.00
2019-06-01T12:34:24.640Z,25.00
2019-06-01T12:36:54.907Z,25.00
2019-06-01T12:39:25.161Z,24.90
2019-06-01T12:41:55.549Z,24.90
2019-06-01T12:44:27.242Z,25.00
2019-06-01T12:46:57.564Z,25.20
2019-06-01T12:49:27.856Z,25.10
2019-06-01T12:51:58.220Z,25.20
2019-06-01T12:54:29.580Z,25.20
2019-06-01T12:56:59.912Z,25.20
2019-06-01T12:59:30.222Z,25.20
2019-06-01T13:02:00.583Z,25.20
2019-06-01T13:04:30.834Z,25.20
2019-06-01T13:07:01.169Z,25.10
2019-06-01T13:09:31.495Z,25.20
2019-06-01T13:12:03.443Z,25.20
2019-06-01T13:14:33.744Z,25.40
2019-06-01T13:17:07.716Z,25.40
2019-06-01T13:19:36.665Z,25.40
2019-06-01T13:22:07.035Z,25.30
2019-06-01T13:24:37.333Z,25.40
2019-06-01T13:27:08.038Z,25.30
2019-06-01T13:29:38.317Z,25.30
2019-06-01T13:32:08.734Z,25.20
2019-06-01T13:34:42.613Z,25.40
2019-06-01T13:37:14.420Z,25.50
2019-06-01T13:39:45.513Z,25.40
2019-06-01T13:42:16.727Z,25.30
2019-06-01T13:44:47.701Z,25.40
2019-06-01T13:47:18.005Z,25.30
2019-06-01T13:49:48.724Z,25.40
2019-06-01T13:52:20.422Z,25.50
2019-06-01T13:54:50.684Z,25.60
2019-06-01T13:57:21.032Z,25.60
2019-06-01T13:59:51.624Z,25.50
2019-06-01T14:02:23.287Z,25.60
2019-06-01T14:04:54.206Z,25.60
2019-06-01T14:07:24.698Z,25.60
2019-06-01T14:09:55.390Z,25.60
2019-06-01T14:12:25.725Z,25.60
2019-06-01T14:14:56.005Z,25.60
2019-06-01T14:17:26.346Z,25.60
2019-06-01T14:19:56.608Z,25.70
2019-06-01T14:22:27.026Z,25.70
2019-06-01T14:25:11.467Z,25.70
2019-06-01T14:27:29.257Z,25.70
2019-06-01T14:29:59.525Z,25.70
2019-06-01T14:32:30.459Z,25.70
2019-06-01T14:35:00.755Z,25.70
2019-06-01T14:37:31.076Z,25.70
2019-06-01T14:40:01.391Z,25.80
2019-06-01T14:42:31.747Z,25.70
2019-06-01T14:45:02.047Z,25.70
2019-06-01T14:47:32.497Z,25.80
2019-06-01T14:50:03.102Z,25.80
2019-06-01T14:52:35.285Z,25.90
2019-06-01T14:55:07.315Z,25.90
2019-06-01T14:57:37.668Z,25.90
2019-06-01T15:00:09.622Z,25.90
2019-06-01T15:02:40.051Z,25.90
2019-06-01T15:05:10.648Z,25.90
2019-06-01T15:07:40.977Z,25.90
2019-06-01T15:10:11.941Z,25.80
2019-06-01T15:12:42.338Z,25.70
2019-06-01T15:15:12.917Z,25.70
2019-06-01T15:17:43.246Z,25.70
2019-06-01T15:20:14.838Z,25.60
2019-06-01T15:22:45.206Z,25.70
2019-06-01T15:25:18.042Z,25.70
2019-06-01T15:27:48.419Z,25.70
2019-06-01T15:30:18.906Z,25.80
2019-06-01T15:32:50.050Z,25.90
2019-06-01T15:35:20.460Z,25.90
2019-06-01T15:37:51.343Z,25.90
2019-06-01T15:40:22.813Z,25.80
2019-06-01T15:42:53.593Z,25.80
2019-06-01T15:45:24.024Z,25.90
2019-06-01T15:47:55.554Z,25.80
2019-06-01T15:50:25.957Z,25.80
2019-06-01T15:52:57.059Z,25.80
2019-06-01T15:55:27.595Z,25.80
2019-06-01T15:57:58.497Z,25.90
2019-06-01T16:00:28.906Z,26.00
2019-06-01T16:02:59.243Z,26.00
2019-06-01T16:05:29.546Z,26.00
2019-06-01T16:07:59.914Z,26.00
2019-06-01T16:10:30.199Z,26.00
2019-06-01T16:13:01.691Z,25.90
2019-06-01T16:15:31.945Z,25.90
2019-06-01T16:18:02.261Z,25.90
2019-06-01T16:20:33.521Z,25.90
2019-06-01T16:23:05.064Z,25.80
2019-06-01T16:25:36.666Z,25.80
2019-06-01T16:28:07.059Z,25.90
2019-06-01T16:30:37.328Z,25.90
2019-06-01T16:33:07.788Z,25.90
2019-06-01T16:35:38.108Z,25.80
2019-06-01T16:38:08.433Z,25.80
2019-06-01T16:40:38.731Z,25.80
2019-06-01T16:43:09.121Z,25.80
2019-06-01T16:45:39.417Z,25.70
2019-06-01T16:48:09.783Z,25.70
2019-06-01T16:50:40.041Z,25.70
2019-06-01T16:53:10.369Z,25.70
2019-06-01T16:55:40.632Z,25.70
2019-06-01T16:58:11.012Z,25.70
2019-06-01T17:00:41.411Z,25.70
2019-06-01T17:03:11.763Z,25.70
2019-06-01T17:05:42.050Z,25.70
2019-06-01T17:08:15.419Z,25.60
2019-06-01T17:10:45.352Z,25.60
2019-06-01T17:13:15.744Z,25.60
2019-06-01T17:15:46.014Z,25.50
2019-06-01T17:18:16.336Z,25.40
2019-06-01T17:20:49.287Z,25.40
2019-06-01T17:23:26.889Z,25.40
2019-06-01T17:25:50.601Z,25.30
2019-06-01T17:28:20.930Z,25.20
2019-06-01T17:30:51.438Z,25.20
2019-06-01T17:33:22.136Z,25.20
2019-06-01T17:35:52.726Z,25.10
2019-06-01T17:38:23.056Z,25.00
2019-06-01T17:40:53.385Z,24.90
2019-06-01T17:43:23.781Z,24.90
2019-06-01T17:45:54.081Z,24.80
2019-06-01T17:48:26.776Z,24.80
2019-06-01T17:50:56.358Z,24.70
2019-06-01T17:53:26.680Z,24.70
2019-06-01T17:55:56.982Z,24.70
2019-06-01T17:58:27.281Z,24.60
2019-06-01T18:00:57.545Z,24.60
2019-06-01T18:03:27.872Z,24.50
2019-06-01T18:05:58.171Z,24.40
2019-06-01T18:08:28.501Z,24.30
2019-06-01T18:10:58.795Z,24.30
2019-06-01T18:13:29.210Z,24.30
2019-06-01T18:15:59.502Z,24.20
2019-06-01T18:18:29.837Z,24.20
2019-06-01T18:21:00.098Z,24.10
2019-06-01T18:23:30.441Z,24.10
2019-06-01T18:26:00.738Z,24.00
2019-06-01T18:28:31.065Z,24.00
2019-06-01T18:31:02.582Z,23.90
2019-06-01T18:33:35.991Z,23.90
2019-06-01T18:36:07.449Z,23.80
2019-06-01T18:38:37.991Z,23.70
2019-06-01T18:41:14.538Z,23.70
2019-06-01T18:43:40.313Z,23.60
2019-06-01T18:46:10.611Z,23.60
2019-06-01T18:48:41.077Z,23.50
2019-06-01T18:51:12.321Z,23.50
2019-06-01T18:53:42.784Z,23.50
2019-06-01T18:56:14.288Z,23.40
2019-06-01T18:58:44.753Z,23.40
2019-06-01T19:01:15.246Z,23.40
2019-06-01T19:03:46.714Z,23.30
2019-06-01T19:06:16.982Z,23.30
2019-06-01T19:08:47.314Z,23.20
2019-06-01T19:11:30.512Z,23.20
2019-06-01T19:13:49.549Z,23.10
2019-06-01T19:16:19.842Z,23.10
2019-06-01T19:18:50.207Z,23.00
2019-06-01T19:21:20.498Z,23.00
2019-06-01T19:23:50.825Z,23.00
2019-06-01T19:26:22.222Z,23.00
2019-06-01T19:28:52.979Z,23.00
2019-06-01T19:31:23.271Z,23.00
2019-06-01T19:33:53.623Z,23.00
2019-06-01T19:36:24.022Z,22.90
2019-06-01T19:38:55.321Z,23.00
2019-06-01T19:41:25.584Z,23.10
2019-06-01T19:43:55.928Z,23.00
2019-06-01T19:46:26.234Z,23.00
2019-06-01T19:48:56.582Z,23.00
2019-06-01T19:51:26.893Z,23.00
2019-06-01T19:53:57.247Z,22.90
2019-06-01T19:56:27.515Z,22.90
2019-06-01T19:58:57.854Z,22.80
2019-06-01T20:01:28.156Z,22.80
2019-06-01T20:03:58.484Z,22.90
2019-06-01T20:06:28.769Z,22.90
2019-06-01T20:09:00.143Z,22.90
2019-06-01T20:11:30.447Z,22.80
2019-06-01T20:14:00.808Z,22.80
2019-06-01T20:16:31.198Z,22.80
2019-06-01T20:19:01.564Z,22.70
2019-06-01T20:21:31.846Z,22.70
2019-06-01T20:24:02.219Z,22.70
2019-06-01T20:26:42.134Z,22.60
2019-06-01T20:29:04.960Z,22.60
2019-06-01T20:31:35.258Z,22.50
2019-06-01T20:34:05.623Z,22.50
2019-06-01T20:36:35.910Z,22.40
2019-06-01T20:39:08.136Z,22.40
2019-06-01T20:41:38.401Z,22.30
2019-06-01T20:44:08.777Z,22.30
2019-06-01T20:46:39.074Z,22.20
2019-06-01T20:49:09.412Z,22.10
2019-06-01T20:51:39.699Z,22.10
2019-06-01T20:54:10.032Z,22.00
2019-06-01T20:56:40.294Z,22.00
2019-06-01T20:59:10.613Z,22.00
2019-06-01T21:01:40.907Z,21.90
2019-06-01T21:04:11.229Z,21.80
2019-06-01T21:06:41.505Z,21.70
2019-06-01T21:09:11.829Z,21.70
2019-06-01T21:11:42.085Z,21.60
2019-06-01T21:14:12.429Z,21.60
2019-06-01T21:16:42.698Z,21.60
2019-06-01T21:19:14.106Z,21.50
2019-06-01T21:21:44.416Z,21.50
2019-06-01T21:24:16.710Z,21.40
2019-06-01T21:26:47.217Z,21.20
2019-06-01T21:29:18.561Z,21.20
2019-06-01T21:31:49.154Z,21.20
2019-06-01T21:34:20.979Z,21.10
2019-06-01T21:36:51.613Z,21.10
2019-06-01T21:39:22.069Z,21.10
2019-06-01T21:41:52.333Z,21.20
2019-06-01T21:44:23.717Z,21.20
2019-06-01T21:46:54.088Z,21.20
2019-06-01T21:49:24.400Z,21.20
2019-06-01T21:51:54.704Z,21.20
2019-06-01T21:54:26.326Z,21.20
2019-06-01T21:56:56.802Z,21.10
2019-06-01T21:59:28.677Z,21.10
2019-06-01T22:01:59.033Z,21.10
2019-06-01T22:04:29.394Z,21.00
2019-06-01T22:06:59.690Z,21.00
2019-06-01T22:09:30.112Z,20.90
2019-06-01T22:12:00.408Z,20.80
2019-06-01T22:14:30.729Z,20.70
2019-06-01T22:17:01.002Z,20.70
2019-06-01T22:19:32.362Z,20.70
2019-06-01T22:22:02.625Z,20.70
2019-06-01T22:24:32.954Z,20.70
2019-06-01T22:27:03.237Z,20.70
2019-06-01T22:29:33.594Z,20.70
2019-06-01T22:32:03.861Z,20.70
2019-06-01T22:34:34.226Z,20.70
2019-06-01T22:37:04.584Z,20.50
2019-06-01T22:39:34.948Z,20.50
2019-06-01T22:42:05.201Z,20.50
2019-06-01T22:44:35.945Z,20.50
2019-06-01T22:47:06.252Z,20.50
2019-06-01T22:49:36.629Z,20.50
2019-06-01T22:52:06.918Z,20.30
2019-06-01T22:54:37.289Z,20.20
2019-06-01T22:57:07.589Z,20.20
2019-06-01T22:59:39.012Z,20.30
2019-06-01T23:02:09.325Z,20.40
2019-06-01T23:04:39.786Z,20.40
2019-06-01T23:07:10.094Z,20.30
2019-06-01T23:09:40.477Z,20.40
2019-06-01T23:12:10.777Z,20.30
2019-06-01T23:14:41.149Z,20.30
2019-06-01T23:17:11.459Z,20.30
2019-06-01T23:19:41.825Z,20.30
2019-06-01T23:22:12.110Z,20.30
2019-06-01T23:24:42.476Z,20.30
2019-06-01T23:27:12.785Z,20.30
2019-06-01T23:29:43.245Z,20.20
2019-06-01T23:32:13.538Z,20.10
2019-06-01T23:34:43.886Z,19.90
2019-06-01T23:37:14.199Z,20.00
2019-06-01T23:39:44.736Z,20.00
2019-06-01T23:42:15.080Z,20.10
2019-06-01T23:44:45.412Z,20.10
2019-06-01T23:47:15.683Z,20.00
2019-06-01T23:49:46.029Z,19.80
2019-06-01T23:52:16.337Z,19.80
2019-06-01T23:54:46.678Z,19.80
2019-06-01T23:57:16.933Z,19.80
2019-06-01T23:59:47.290Z,19.90
